Weather at Eleftherios Venizelos International Airport

Public forecast

Using degrees Celsius for public forecast. Weather courtesy of forecast.io.

Current aviation weather report (METAR) for Eleftherios Venizelos International Airport

Retrieved 2021/04/22 23:20 UTC (38 minutes ago):

LGAV 222320Z 26004KT 9999 FEW025 13/08 Q1021 NOSIG

Aviation forecast (TAF) for Eleftherios Venizelos International Airport

Retrieved 2021/04/22 18:12 UTC (6 hours ago):

TAF TAF LGAV 221700Z 2218/2318 21010KT 9999 FEW025 SCT070 BECMG 2220/2222 VRB05KT